createdAt,value
2017-12-12T00:01:56.860Z,68.75
2017-12-12T00:04:24.348Z,68.58
2017-12-12T00:06:51.802Z,68.36
2017-12-12T00:09:19.255Z,68.02
2017-12-12T00:11:46.726Z,67.87
2017-12-12T00:14:14.333Z,67.71
2017-12-12T00:16:41.852Z,67.94
2017-12-12T00:19:09.336Z,67.84
2017-12-12T00:21:36.795Z,67.95
2017-12-12T00:24:04.343Z,67.86
2017-12-12T00:26:31.867Z,67.76
2017-12-12T00:28:59.307Z,67.74
2017-12-12T00:31:26.787Z,67.95
2017-12-12T00:33:54.235Z,67.85
2017-12-12T00:36:21.711Z,67.85
2017-12-12T00:38:49.169Z,67.79
2017-12-12T00:41:16.611Z,67.80
2017-12-12T00:43:44.081Z,67.61
2017-12-12T00:46:11.575Z,67.67
2017-12-12T00:48:39.039Z,67.73
2017-12-12T00:51:06.507Z,67.60
2017-12-12T00:53:33.947Z,67.35
2017-12-12T00:56:01.466Z,67.61
2017-12-12T00:58:28.979Z,67.35
2017-12-12T01:00:56.480Z,67.47
2017-12-12T01:03:23.934Z,67.36
2017-12-12T01:05:51.409Z,67.48
2017-12-12T01:08:18.879Z,67.64
2017-12-12T01:10:46.326Z,67.76
2017-12-12T01:13:13.858Z,67.51
2017-12-12T01:15:41.305Z,67.68
2017-12-12T01:18:08.753Z,67.74
2017-12-12T01:20:36.243Z,67.59
2017-12-12T01:23:03.727Z,67.70
2017-12-12T01:25:31.172Z,67.79
2017-12-12T01:27:58.624Z,67.67
2017-12-12T01:30:26.180Z,67.59
2017-12-12T01:32:53.654Z,67.54
2017-12-12T01:35:21.092Z,67.13
2017-12-12T01:37:48.560Z,67.38
2017-12-12T01:40:16.056Z,67.29
2017-12-12T01:42:43.535Z,67.07
2017-12-12T01:45:11.001Z,67.00
2017-12-12T01:47:38.476Z,66.99
2017-12-12T01:50:05.916Z,66.67
2017-12-12T01:52:33.409Z,66.97
2017-12-12T01:55:01.816Z,66.96
2017-12-12T01:57:29.272Z,66.52
2017-12-12T01:59:56.747Z,66.46
2017-12-12T02:02:24.197Z,66.74
2017-12-12T02:04:51.652Z,66.65
2017-12-12T02:07:19.150Z,66.50
2017-12-12T02:09:46.627Z,66.79
2017-12-12T02:12:14.104Z,67.32
2017-12-12T02:14:41.552Z,67.52
2017-12-12T02:17:09.012Z,67.81
2017-12-12T02:19:36.501Z,67.77
2017-12-12T02:22:03.979Z,67.64
2017-12-12T02:24:31.422Z,67.85
2017-12-12T02:26:59.518Z,68.18
2017-12-12T02:29:26.969Z,67.95
2017-12-12T02:31:54.848Z,67.64
2017-12-12T02:34:22.300Z,67.82
2017-12-12T02:36:49.791Z,66.97
2017-12-12T02:39:17.308Z,63.72
2017-12-12T02:41:44.784Z,61.67
2017-12-12T02:44:12.264Z,59.69
2017-12-12T02:46:39.789Z,59.87
2017-12-12T02:49:07.272Z,59.07
2017-12-12T02:51:34.771Z,57.90
2017-12-12T02:54:02.299Z,58.57
2017-12-12T02:56:30.179Z,58.07
2017-12-12T02:58:57.697Z,57.36
2017-12-12T03:01:25.155Z,57.29
2017-12-12T03:03:52.601Z,57.29
2017-12-12T03:06:20.071Z,57.58
2017-12-12T03:08:47.533Z,57.43
2017-12-12T03:11:14.983Z,57.70
2017-12-12T03:13:42.435Z,57.57
2017-12-12T03:16:09.977Z,57.90
2017-12-12T03:18:37.449Z,58.17
2017-12-12T03:21:04.907Z,58.55
2017-12-12T03:23:32.402Z,58.58
2017-12-12T03:25:59.852Z,58.50
2017-12-12T03:28:27.335Z,58.89
2017-12-12T03:30:54.833Z,59.28
2017-12-12T03:33:22.280Z,59.47
2017-12-12T03:35:49.783Z,59.90
2017-12-12T03:38:17.319Z,60.12
2017-12-12T03:40:44.819Z,60.25
2017-12-12T03:43:12.277Z,60.75
2017-12-12T03:45:39.759Z,60.79
2017-12-12T03:48:07.227Z,60.82
2017-12-12T03:50:34.706Z,60.91
2017-12-12T03:53:02.199Z,61.23
2017-12-12T03:55:29.724Z,61.38
2017-12-12T03:57:57.192Z,61.69
2017-12-12T04:00:25.265Z,61.75
2017-12-12T04:02:52.725Z,61.74
2017-12-12T04:05:20.192Z,62.08
2017-12-12T04:07:47.679Z,62.43
2017-12-12T04:10:15.175Z,62.47
2017-12-12T04:12:44.108Z,63.05
2017-12-12T04:15:12.413Z,63.11
2017-12-12T04:17:39.876Z,63.28
2017-12-12T04:20:07.373Z,63.22
2017-12-12T04:22:34.836Z,63.23
2017-12-12T04:25:02.356Z,63.14
2017-12-12T04:27:29.824Z,63.12
2017-12-12T04:29:57.292Z,63.05
2017-12-12T04:32:24.771Z,62.97
2017-12-12T04:34:52.235Z,62.91
2017-12-12T04:37:19.739Z,62.71
2017-12-12T04:39:47.212Z,63.41
2017-12-12T04:42:14.719Z,64.18
2017-12-12T04:44:42.226Z,64.85
2017-12-12T04:47:09.708Z,65.93
2017-12-12T04:49:37.171Z,66.18
2017-12-12T04:52:04.627Z,67.44
2017-12-12T04:54:32.114Z,68.06
2017-12-12T04:56:59.657Z,68.32
2017-12-12T04:59:27.128Z,68.40
2017-12-12T05:01:54.587Z,69.21
2017-12-12T05:04:22.128Z,69.63
2017-12-12T05:06:50.250Z,69.79
2017-12-12T05:09:17.754Z,71.18
2017-12-12T05:11:45.212Z,73.41
2017-12-12T05:14:12.836Z,73.95
2017-12-12T05:16:40.328Z,75.20
2017-12-12T05:19:07.894Z,76.19
2017-12-12T05:21:35.355Z,76.41
2017-12-12T05:24:02.823Z,76.46
2017-12-12T05:26:30.406Z,75.44
2017-12-12T05:28:57.860Z,76.04
2017-12-12T05:31:25.315Z,76.10
2017-12-12T05:33:52.765Z,75.32
2017-12-12T05:36:20.229Z,76.67
2017-12-12T05:38:47.679Z,76.59
2017-12-12T05:41:15.123Z,77.03
2017-12-12T05:43:42.607Z,76.45
2017-12-12T05:46:10.072Z,76.49
2017-12-12T05:48:37.567Z,76.88
2017-12-12T05:51:05.051Z,76.68
2017-12-12T05:53:32.555Z,76.20
2017-12-12T05:56:00.023Z,76.00
2017-12-12T05:58:27.592Z,76.59
2017-12-12T06:00:55.039Z,75.55
2017-12-12T06:03:22.512Z,75.40
2017-12-12T06:05:50.009Z,75.04
2017-12-12T06:08:17.476Z,74.65
2017-12-12T06:10:44.940Z,74.31
2017-12-12T06:13:12.399Z,73.81
2017-12-12T06:15:39.879Z,74.20
2017-12-12T06:18:07.318Z,74.05
2017-12-12T06:20:34.775Z,73.61
2017-12-12T06:23:02.249Z,73.56
2017-12-12T06:25:29.710Z,74.15
2017-12-12T06:27:57.173Z,73.80
2017-12-12T06:30:24.892Z,74.26
2017-12-12T06:32:52.355Z,73.75
2017-12-12T06:35:19.883Z,73.33
2017-12-12T06:37:47.391Z,73.05
2017-12-12T06:40:14.948Z,73.24
2017-12-12T06:42:42.687Z,73.35
2017-12-12T06:45:10.132Z,73.33
2017-12-12T06:47:37.580Z,73.85
2017-12-12T06:50:05.054Z,73.19
2017-12-12T06:52:33.372Z,73.24
2017-12-12T06:55:00.834Z,73.40
2017-12-12T06:57:28.335Z,73.49
2017-12-12T06:59:55.793Z,72.79
2017-12-12T07:02:23.240Z,72.56
2017-12-12T07:04:50.703Z,72.58
2017-12-12T07:07:18.254Z,72.30
2017-12-12T07:09:45.692Z,72.41
2017-12-12T07:12:13.188Z,72.07
2017-12-12T07:14:40.641Z,72.16
2017-12-12T07:17:08.105Z,71.36
2017-12-12T07:19:35.603Z,72.15
2017-12-12T07:22:03.113Z,71.50
2017-12-12T07:24:30.605Z,71.74
2017-12-12T07:26:58.141Z,71.14
2017-12-12T07:29:25.596Z,71.45
2017-12-12T07:31:53.073Z,71.40
2017-12-12T07:34:20.540Z,71.16
2017-12-12T07:36:48.662Z,71.54
2017-12-12T07:39:16.368Z,71.29
2017-12-12T07:41:43.836Z,70.76
2017-12-12T07:44:11.289Z,71.29
2017-12-12T07:46:38.826Z,71.52
2017-12-12T07:49:06.322Z,71.57
2017-12-12T07:51:33.812Z,70.86
2017-12-12T07:54:01.300Z,71.38
2017-12-12T07:56:28.798Z,70.82
2017-12-12T07:58:56.273Z,70.75
2017-12-12T08:01:23.816Z,71.63
2017-12-12T08:03:51.355Z,71.27
2017-12-12T08:06:18.826Z,71.38
2017-12-12T08:08:46.310Z,70.58
2017-12-12T08:11:13.819Z,70.60
2017-12-12T08:13:41.351Z,70.53
2017-12-12T08:16:08.814Z,70.84
2017-12-12T08:18:36.293Z,70.42
2017-12-12T08:21:03.776Z,70.78
2017-12-12T08:23:31.249Z,70.72
2017-12-12T08:25:58.722Z,70.89
2017-12-12T08:28:26.169Z,70.59
2017-12-12T08:30:53.633Z,70.51
2017-12-12T08:33:21.303Z,70.69
2017-12-12T08:35:48.756Z,70.15
2017-12-12T08:38:16.306Z,70.16
2017-12-12T08:40:43.764Z,69.97
2017-12-12T08:43:11.226Z,68.90
2017-12-12T08:45:38.684Z,69.74
2017-12-12T08:48:06.149Z,70.17
2017-12-12T08:50:33.692Z,70.29
2017-12-12T08:53:01.162Z,71.17
2017-12-12T08:55:28.648Z,70.18
2017-12-12T08:57:56.100Z,70.35
2017-12-12T09:00:23.708Z,70.61
2017-12-12T09:02:51.185Z,70.88
2017-12-12T09:05:18.621Z,70.71
2017-12-12T09:07:46.083Z,70.16
2017-12-12T09:10:15.416Z,70.29
2017-12-12T09:12:43.048Z,69.58
2017-12-12T09:15:10.532Z,69.60
2017-12-12T09:17:38.009Z,69.55
2017-12-12T09:20:05.488Z,68.91
2017-12-12T09:22:32.968Z,68.83
2017-12-12T09:25:00.443Z,68.83
2017-12-12T09:27:28.134Z,68.67
2017-12-12T09:29:55.660Z,68.27
2017-12-12T09:32:23.142Z,68.04
2017-12-12T09:34:50.583Z,67.81
2017-12-12T09:37:18.031Z,67.48
2017-12-12T09:39:45.493Z,66.90
2017-12-12T09:42:12.956Z,66.50
2017-12-12T09:44:40.421Z,66.60
2017-12-12T09:47:07.944Z,66.29
2017-12-12T09:49:35.396Z,66.23
2017-12-12T09:52:02.851Z,65.27
2017-12-12T09:54:30.320Z,64.80
2017-12-12T09:56:57.774Z,63.27
2017-12-12T09:59:25.254Z,62.21
2017-12-12T10:01:52.714Z,61.54
2017-12-12T10:04:20.175Z,60.96
2017-12-12T10:06:47.642Z,60.81
2017-12-12T10:09:15.198Z,60.79
2017-12-12T10:11:42.674Z,60.68
2017-12-12T10:14:10.163Z,60.16
2017-12-12T10:16:37.696Z,60.19
2017-12-12T10:19:05.161Z,60.05
2017-12-12T10:21:32.637Z,59.99
2017-12-12T10:24:00.092Z,60.13
2017-12-12T10:26:27.625Z,60.35
2017-12-12T10:28:55.117Z,60.08
2017-12-12T10:31:22.581Z,59.58
2017-12-12T10:33:50.065Z,60.65
2017-12-12T10:36:17.568Z,59.28
2017-12-12T10:38:45.025Z,59.29
2017-12-12T10:41:12.546Z,59.85
2017-12-12T10:43:40.512Z,59.71
2017-12-12T10:46:08.112Z,59.94
2017-12-12T10:48:35.574Z,60.07
2017-12-12T10:51:03.076Z,60.33
2017-12-12T10:53:30.567Z,60.21
2017-12-12T10:55:58.072Z,59.88
2017-12-12T10:58:25.552Z,59.91
2017-12-12T11:00:53.059Z,59.50
2017-12-12T11:03:20.527Z,58.58
2017-12-12T11:05:48.003Z,57.91
2017-12-12T11:08:15.533Z,58.63
2017-12-12T11:10:43.001Z,58.29
2017-12-12T11:13:10.495Z,57.84
2017-12-12T11:15:37.962Z,58.09
2017-12-12T11:18:05.426Z,56.87
2017-12-12T11:20:32.889Z,56.86
2017-12-12T11:23:00.374Z,57.38
2017-12-12T11:25:27.901Z,56.64
2017-12-12T11:27:56.108Z,56.90
2017-12-12T11:30:23.770Z,56.59
2017-12-12T11:32:51.346Z,56.33
2017-12-12T11:35:18.832Z,56.58
2017-12-12T11:37:46.320Z,56.66
2017-12-12T11:40:13.992Z,57.04
2017-12-12T11:42:41.646Z,57.70
2017-12-12T11:45:09.183Z,58.08
2017-12-12T11:47:36.694Z,58.18
2017-12-12T11:50:04.182Z,57.95
2017-12-12T11:52:31.682Z,58.46
2017-12-12T11:54:59.173Z,58.42
2017-12-12T11:57:26.692Z,58.35
2017-12-12T11:59:54.163Z,58.60
2017-12-12T12:02:23.395Z,58.69
2017-12-12T12:04:50.884Z,59.06
2017-12-12T12:07:18.429Z,60.15
2017-12-12T12:09:45.962Z,59.19
2017-12-12T12:12:13.447Z,59.20
2017-12-12T12:14:40.916Z,58.78
2017-12-12T12:17:08.410Z,58.50
2017-12-12T12:19:35.887Z,58.31
2017-12-12T12:22:03.356Z,58.18
2017-12-12T12:24:30.892Z,58.23
2017-12-12T12:26:58.366Z,58.18
2017-12-12T12:29:25.825Z,58.53
2017-12-12T12:31:53.316Z,58.50
2017-12-12T12:34:20.785Z,57.98
2017-12-12T12:36:48.294Z,58.30
2017-12-12T12:39:15.971Z,58.45
2017-12-12T12:41:43.428Z,58.52
2017-12-12T12:44:10.961Z,58.63
2017-12-12T12:46:38.456Z,58.41
2017-12-12T12:49:05.965Z,59.00
2017-12-12T12:51:33.484Z,59.19
2017-12-12T12:54:01.049Z,59.29
2017-12-12T12:56:28.588Z,59.37
2017-12-12T12:58:56.077Z,59.14
2017-12-12T13:01:23.520Z,59.09
2017-12-12T13:03:50.995Z,59.36
2017-12-12T13:06:18.477Z,59.95
2017-12-12T13:08:45.918Z,59.80
2017-12-12T13:11:13.400Z,60.05
2017-12-12T13:13:40.871Z,60.11
2017-12-12T13:16:08.340Z,60.71
2017-12-12T13:18:35.810Z,61.40
2017-12-12T13:21:03.271Z,62.13
2017-12-12T13:23:30.744Z,61.88
2017-12-12T13:25:58.228Z,62.22
2017-12-12T13:28:25.678Z,62.15
2017-12-12T13:30:53.160Z,61.14
2017-12-12T13:33:20.620Z,60.60
2017-12-12T13:35:48.140Z,59.06
2017-12-12T13:38:15.819Z,59.54
2017-12-12T13:40:43.298Z,58.62
2017-12-12T13:43:10.787Z,58.20
2017-12-12T13:45:38.242Z,58.36
2017-12-12T13:48:05.704Z,58.28
2017-12-12T13:50:33.901Z,58.63
2017-12-12T13:53:01.365Z,58.75
2017-12-12T13:55:28.844Z,58.53
2017-12-12T13:57:56.330Z,58.36
2017-12-12T14:00:23.952Z,58.18
2017-12-12T14:02:51.448Z,58.02
2017-12-12T14:05:18.934Z,58.13
2017-12-12T14:07:46.456Z,58.48
2017-12-12T14:10:13.991Z,58.56
2017-12-12T14:12:41.815Z,58.44
2017-12-12T14:15:09.315Z,58.20
2017-12-12T14:17:36.772Z,58.18
2017-12-12T14:20:04.241Z,58.23
2017-12-12T14:22:31.756Z,57.95
2017-12-12T14:24:59.222Z,57.97
2017-12-12T14:27:26.667Z,57.65
2017-12-12T14:29:54.122Z,57.49
2017-12-12T14:32:21.592Z,57.17
2017-12-12T14:34:49.041Z,56.69
2017-12-12T14:37:16.489Z,56.44
2017-12-12T14:39:43.965Z,56.10
2017-12-12T14:42:11.457Z,55.94
2017-12-12T14:44:38.893Z,55.90
2017-12-12T14:47:06.355Z,55.80
2017-12-12T14:49:33.816Z,55.69
2017-12-12T14:52:01.265Z,55.84
2017-12-12T14:54:28.729Z,55.42
2017-12-12T14:56:56.184Z,55.85
2017-12-12T14:59:23.641Z,55.72
2017-12-12T15:01:51.097Z,56.00
2017-12-12T15:04:18.636Z,56.39
2017-12-12T15:06:46.116Z,56.62
2017-12-12T15:09:13.633Z,56.85
2017-12-12T15:11:41.100Z,57.53
2017-12-12T15:14:08.567Z,57.85
2017-12-12T15:16:36.082Z,58.04
2017-12-12T15:19:03.560Z,58.25
2017-12-12T15:21:31.024Z,58.88
2017-12-12T15:23:58.503Z,59.29
2017-12-12T15:26:26.025Z,59.97
2017-12-12T15:28:53.485Z,60.06
2017-12-12T15:31:20.986Z,60.57
2017-12-12T15:33:48.448Z,60.59
2017-12-12T15:36:15.917Z,60.56
2017-12-12T15:38:43.382Z,60.51
2017-12-12T15:41:11.789Z,60.96
2017-12-12T15:43:39.264Z,61.09
2017-12-12T15:46:06.745Z,61.07
2017-12-12T15:48:34.220Z,61.02
2017-12-12T15:51:01.697Z,61.29
2017-12-12T15:53:29.156Z,61.34
2017-12-12T15:55:56.656Z,61.64
2017-12-12T15:58:24.127Z,62.10
2017-12-12T16:00:51.582Z,62.32
2017-12-12T16:03:19.049Z,62.29
2017-12-12T16:05:46.516Z,62.77
2017-12-12T16:08:14.262Z,62.76
2017-12-12T16:10:41.725Z,63.03
2017-12-12T16:13:09.206Z,63.04
2017-12-12T16:15:36.659Z,63.42
2017-12-12T16:18:04.248Z,63.47
2017-12-12T16:20:31.747Z,63.35
2017-12-12T16:22:59.240Z,63.65
2017-12-12T16:25:26.754Z,63.74
2017-12-12T16:27:54.698Z,63.61
2017-12-12T16:30:22.199Z,63.95
2017-12-12T16:32:49.675Z,63.80
2017-12-12T16:35:17.142Z,64.08
2017-12-12T16:37:44.632Z,63.81
2017-12-12T16:40:12.126Z,63.84
2017-12-12T16:42:39.992Z,63.32
2017-12-12T16:45:07.459Z,63.30
2017-12-12T16:47:35.022Z,63.66
2017-12-12T16:50:02.502Z,63.66
2017-12-12T16:52:30.243Z,62.69
2017-12-12T16:54:57.732Z,62.67
2017-12-12T16:57:25.224Z,62.62
2017-12-12T16:59:52.676Z,62.57
2017-12-12T17:02:20.335Z,62.64
2017-12-12T17:04:47.807Z,62.51
2017-12-12T17:07:15.258Z,62.33
2017-12-12T17:09:42.720Z,62.13
2017-12-12T17:12:10.180Z,61.46
2017-12-12T17:14:37.633Z,61.57
2017-12-12T17:17:05.093Z,61.24
2017-12-12T17:19:32.621Z,61.17
2017-12-12T17:22:00.101Z,61.32
2017-12-12T17:24:27.655Z,61.11
2017-12-12T17:26:55.129Z,61.25
2017-12-12T17:29:22.599Z,60.96
2017-12-12T17:31:50.093Z,61.18
2017-12-12T17:34:17.572Z,60.96
2017-12-12T17:36:45.072Z,60.50
2017-12-12T17:39:12.544Z,60.19
2017-12-12T17:41:40.044Z,59.57
2017-12-12T17:44:07.493Z,60.12
2017-12-12T17:46:34.944Z,59.85
2017-12-12T17:49:02.473Z,59.63
2017-12-12T17:51:29.954Z,59.70
2017-12-12T17:53:57.417Z,59.81
2017-12-12T17:56:24.914Z,59.68
2017-12-12T17:58:52.373Z,59.46
2017-12-12T18:01:19.876Z,59.54
2017-12-12T18:03:47.330Z,59.56
2017-12-12T18:06:14.913Z,59.35
2017-12-12T18:08:42.417Z,59.60
2017-12-12T18:11:09.948Z,59.60
2017-12-12T18:13:37.451Z,59.73
2017-12-12T18:16:04.933Z,59.61
2017-12-12T18:18:32.392Z,59.61
2017-12-12T18:20:59.884Z,59.82
2017-12-12T18:23:27.441Z,59.90
2017-12-12T18:25:54.903Z,60.09
2017-12-12T18:28:22.372Z,60.23
2017-12-12T18:30:49.841Z,60.33
2017-12-12T18:33:17.308Z,60.19
2017-12-12T18:35:44.774Z,60.22
2017-12-12T18:38:12.254Z,60.35
2017-12-12T18:40:39.765Z,60.40
2017-12-12T18:43:07.244Z,60.00
2017-12-12T18:45:34.748Z,60.48
2017-12-12T18:48:02.343Z,60.10
2017-12-12T18:50:29.836Z,60.26
2017-12-12T18:52:57.429Z,59.94
2017-12-12T18:55:25.039Z,59.97
2017-12-12T18:57:52.592Z,59.94
2017-12-12T19:00:20.434Z,59.95
2017-12-12T19:02:48.259Z,60.25
2017-12-12T19:05:15.908Z,60.63
2017-12-12T19:07:44.765Z,60.58
2017-12-12T19:10:12.597Z,61.05
2017-12-12T19:12:40.454Z,60.98
2017-12-12T19:15:18.828Z,61.28
2017-12-12T19:17:46.841Z,61.50
2017-12-12T19:20:14.700Z,61.82
2017-12-12T19:22:42.407Z,61.95
2017-12-12T19:25:10.094Z,62.23
2017-12-12T19:27:37.839Z,62.40
2017-12-12T19:30:05.608Z,63.03
2017-12-12T19:32:33.455Z,63.07
2017-12-12T19:35:01.319Z,63.04
2017-12-12T19:37:29.103Z,63.28
2017-12-12T19:39:56.915Z,63.57
2017-12-12T19:42:25.136Z,64.04
2017-12-12T19:44:52.949Z,64.43
2017-12-12T19:47:21.056Z,64.29
2017-12-12T19:49:48.895Z,64.45
2017-12-12T19:52:16.532Z,65.12
2017-12-12T19:54:44.627Z,65.02
2017-12-12T19:57:12.331Z,65.51
2017-12-12T19:59:40.168Z,65.31
2017-12-12T20:02:07.985Z,65.53
2017-12-12T20:04:36.657Z,66.02
2017-12-12T20:07:04.560Z,65.97
2017-12-12T20:09:32.479Z,66.43
2017-12-12T20:12:00.343Z,66.33
2017-12-12T20:14:28.214Z,66.16
2017-12-12T20:16:56.611Z,66.04
2017-12-12T20:19:25.632Z,66.54
2017-12-12T20:21:53.558Z,66.54
2017-12-12T20:24:21.591Z,66.88
2017-12-12T20:26:49.305Z,67.22
2017-12-12T20:29:17.031Z,67.20
2017-12-12T20:31:44.772Z,67.08
2017-12-12T20:34:12.576Z,67.11
2017-12-12T20:36:40.688Z,67.37
2017-12-12T20:39:08.427Z,67.30
2017-12-12T20:41:36.153Z,67.36
2017-12-12T20:44:03.962Z,67.48
2017-12-12T20:46:31.733Z,67.79
2017-12-12T20:48:59.603Z,68.08
2017-12-12T20:51:27.426Z,67.81
2017-12-12T20:53:55.462Z,67.41
2017-12-12T20:56:23.454Z,67.80
2017-12-12T20:58:51.279Z,68.05
2017-12-12T21:01:19.022Z,68.31
2017-12-12T21:03:46.827Z,68.23
2017-12-12T21:06:14.399Z,68.32
2017-12-12T21:08:42.051Z,68.64
2017-12-12T21:11:09.640Z,69.06
2017-12-12T21:13:37.345Z,69.05
2017-12-12T21:16:05.252Z,69.05
2017-12-12T21:18:32.886Z,69.25
2017-12-12T21:21:00.434Z,69.18
2017-12-12T21:23:27.965Z,68.66
2017-12-12T21:25:55.549Z,68.98
2017-12-12T21:28:23.118Z,69.17
2017-12-12T21:30:50.691Z,69.58
2017-12-12T21:33:20.408Z,69.48
2017-12-12T21:35:47.934Z,70.00
2017-12-12T21:38:15.850Z,70.09
2017-12-12T21:40:43.342Z,70.40
2017-12-12T21:43:10.818Z,70.93
2017-12-12T21:45:38.303Z,71.21
2017-12-12T21:48:05.766Z,71.04
2017-12-12T21:50:33.251Z,71.45
2017-12-12T21:53:00.763Z,71.41
2017-12-12T21:55:28.518Z,71.81
2017-12-12T21:57:56.026Z,71.57
2017-12-12T22:00:23.608Z,71.77
2017-12-12T22:02:51.072Z,71.67
2017-12-12T22:05:18.552Z,71.47
2017-12-12T22:07:45.995Z,71.93
2017-12-12T22:10:13.479Z,72.06
2017-12-12T22:12:41.051Z,72.04
2017-12-12T22:15:08.534Z,72.35
2017-12-12T22:17:36.037Z,72.37
2017-12-12T22:20:03.540Z,72.29
2017-12-12T22:22:30.998Z,72.76
2017-12-12T22:24:58.485Z,72.88
2017-12-12T22:27:25.941Z,72.63
2017-12-12T22:29:53.390Z,71.96
2017-12-12T22:32:21.006Z,72.06
2017-12-12T22:34:51.922Z,72.06
2017-12-12T22:37:19.421Z,71.99
2017-12-12T22:39:46.945Z,72.18
2017-12-12T22:42:14.430Z,72.37
2017-12-12T22:44:41.914Z,72.36
2017-12-12T22:47:09.374Z,72.75
2017-12-12T22:49:36.864Z,72.34
2017-12-12T22:52:04.312Z,72.62
2017-12-12T22:54:31.800Z,72.65
2017-12-12T22:56:59.251Z,72.91
2017-12-12T22:59:27.810Z,72.79
2017-12-12T23:01:55.323Z,72.83
2017-12-12T23:04:22.783Z,72.78
2017-12-12T23:06:50.237Z,72.36
2017-12-12T23:09:17.740Z,71.71
2017-12-12T23:11:45.191Z,72.03
2017-12-12T23:14:12.704Z,72.01
2017-12-12T23:16:40.992Z,72.54
2017-12-12T23:19:08.460Z,72.63
2017-12-12T23:21:38.618Z,72.64
2017-12-12T23:24:06.151Z,72.12
2017-12-12T23:26:35.207Z,72.07
2017-12-12T23:29:02.796Z,72.25
2017-12-12T23:31:30.288Z,71.76
2017-12-12T23:33:57.756Z,72.23
2017-12-12T23:36:25.388Z,72.09
2017-12-12T23:38:52.852Z,71.70
2017-12-12T23:41:20.292Z,71.82
2017-12-12T23:43:47.777Z,71.63
2017-12-12T23:46:15.331Z,71.67
2017-12-12T23:48:42.788Z,70.97
2017-12-12T23:51:10.242Z,71.03
2017-12-12T23:53:37.719Z,71.08
2017-12-12T23:56:05.173Z,71.09
2017-12-12T23:58:32.740Z,71.33
